createdAt,value
2019-03-10T00:02:04.137Z,1.37
2019-03-10T00:04:45.432Z,0.60
2019-03-10T00:07:27.047Z,1.53
2019-03-10T00:10:08.758Z,1.00
2019-03-10T00:12:47.285Z,0.60
2019-03-10T00:15:28.703Z,1.00
2019-03-10T00:18:10.403Z,0.50
2019-03-10T00:20:39.625Z,0.57
2019-03-10T00:23:28.719Z,0.80
2019-03-10T00:26:12.603Z,0.70
2019-03-10T00:28:56.820Z,0.60
2019-03-10T00:34:34.723Z,0.80
2019-03-10T00:37:06.602Z,0.27
2019-03-10T00:40:01.069Z,0.77
2019-03-10T00:43:08.946Z,0.77
2019-03-10T00:46:16.764Z,0.40
2019-03-10T00:48:58.085Z,0.70
2019-03-10T00:51:39.578Z,0.80
2019-03-10T00:57:07.476Z,1.10
2019-03-10T01:02:34.461Z,1.10
2019-03-10T01:08:08.588Z,1.17
2019-03-10T01:14:00.854Z,0.70
2019-03-10T01:16:43.465Z,0.87
2019-03-10T01:19:24.768Z,1.00
2019-03-10T01:22:06.007Z,0.90
2019-03-10T01:24:56.784Z,1.03
2019-03-10T01:28:12.146Z,0.43
2019-03-10T01:30:30.065Z,0.97
2019-03-10T01:35:59.808Z,0.70
2019-03-10T01:41:29.588Z,1.17
2019-03-10T01:44:05.952Z,0.60
2019-03-10T01:46:56.240Z,0.50
2019-03-10T01:49:45.046Z,1.37
2019-03-10T01:52:26.004Z,1.07
2019-03-10T01:55:07.371Z,0.73
2019-03-10T02:00:44.237Z,1.33
2019-03-10T02:03:25.954Z,1.37
2019-03-10T02:06:07.199Z,1.30
2019-03-10T02:08:48.435Z,1.50
2019-03-10T02:11:29.863Z,1.77
2019-03-10T02:14:11.126Z,2.40
2019-03-10T02:16:52.629Z,1.50
2019-03-10T02:19:34.148Z,2.00
2019-03-10T02:22:12.637Z,1.83
2019-03-10T02:24:54.200Z,2.17
2019-03-10T02:30:15.509Z,2.23
2019-03-10T02:35:39.842Z,2.60
2019-03-10T02:40:59.297Z,1.83
2019-03-10T02:43:40.747Z,1.87
2019-03-10T02:46:10.555Z,2.30
2019-03-10T02:48:40.274Z,1.40
2019-03-10T02:51:10.210Z,1.80
2019-03-10T02:53:39.339Z,1.30
2019-03-10T02:56:08.480Z,1.10
2019-03-10T02:58:57.239Z,1.20
2019-03-10T03:01:45.946Z,1.40
2019-03-10T03:04:27.191Z,1.33
2019-03-10T03:07:10.792Z,1.27
2019-03-10T03:09:51.911Z,1.00
2019-03-10T03:12:34.818Z,1.00
2019-03-10T03:15:16.685Z,0.93
2019-03-10T03:17:58.079Z,0.67
2019-03-10T03:20:39.428Z,1.30
2019-03-10T03:23:20.993Z,1.00
2019-03-10T03:26:02.261Z,0.80
2019-03-10T03:28:43.569Z,0.93
2019-03-10T03:31:24.502Z,0.80
2019-03-10T03:34:05.705Z,0.80
2019-03-10T03:36:48.875Z,1.03
2019-03-10T03:39:30.261Z,0.80
2019-03-10T03:44:50.717Z,0.60
2019-03-10T03:47:32.019Z,0.80
2019-03-10T03:52:53.332Z,0.83
2019-03-10T03:58:15.228Z,1.20
2019-03-10T04:01:01.649Z,0.60
2019-03-10T04:03:43.125Z,0.93
2019-03-10T04:09:08.012Z,0.80
2019-03-10T04:11:49.278Z,1.17
2019-03-10T04:14:32.526Z,1.37
2019-03-10T04:17:14.072Z,0.83
2019-03-10T04:19:52.326Z,1.10
2019-03-10T04:22:35.784Z,0.87
2019-03-10T04:28:33.378Z,0.73
2019-03-10T04:31:14.129Z,0.80
2019-03-10T04:33:55.204Z,0.73
2019-03-10T04:36:36.893Z,1.17
2019-03-10T04:39:17.981Z,0.80
2019-03-10T04:41:59.510Z,0.90
2019-03-10T04:44:47.589Z,1.20
2019-03-10T04:47:17.346Z,1.40
2019-03-10T04:49:47.103Z,1.00
2019-03-10T04:52:35.969Z,1.30
2019-03-10T04:55:24.596Z,0.80
2019-03-10T04:58:13.227Z,1.50
2019-03-10T05:01:01.240Z,1.27
2019-03-10T05:03:45.455Z,1.70
2019-03-10T05:06:26.870Z,1.50
2019-03-10T05:09:05.770Z,1.20
2019-03-10T05:11:47.070Z,0.90
2019-03-10T05:14:26.066Z,1.20
2019-03-10T05:17:07.779Z,1.97
2019-03-10T05:19:46.806Z,0.97
2019-03-10T05:22:30.263Z,1.20
2019-03-10T05:25:11.448Z,1.60
2019-03-10T05:27:53.237Z,1.23
2019-03-10T05:33:26.561Z,1.30
2019-03-10T05:38:47.396Z,1.50
2019-03-10T05:44:11.702Z,1.20
2019-03-10T05:46:50.226Z,0.90
2019-03-10T05:49:32.613Z,1.10
2019-03-10T05:52:13.856Z,1.10
2019-03-10T05:54:55.444Z,1.80
2019-03-10T05:57:33.827Z,1.20
2019-03-10T06:00:15.191Z,1.47
2019-03-10T06:02:54.245Z,0.80
2019-03-10T06:05:35.686Z,1.30
2019-03-10T06:08:13.819Z,1.50
2019-03-10T06:10:56.928Z,1.23
2019-03-10T06:13:38.271Z,1.63
2019-03-10T06:16:08.037Z,1.13
2019-03-10T06:18:37.708Z,1.50
2019-03-10T06:21:07.401Z,1.20
2019-03-10T06:23:56.096Z,1.20
2019-03-10T06:26:37.273Z,1.13
2019-03-10T06:29:18.844Z,1.27
2019-03-10T06:32:00.478Z,1.20
2019-03-10T06:34:42.019Z,1.10
2019-03-10T06:40:05.434Z,1.87
2019-03-10T06:45:30.094Z,1.40
2019-03-10T06:48:09.187Z,1.10
2019-03-10T06:50:50.507Z,1.53
2019-03-10T06:53:28.759Z,1.50
2019-03-10T06:56:10.250Z,1.40
2019-03-10T07:04:40.823Z,1.20
2019-03-10T07:07:17.903Z,1.13
2019-03-10T07:09:56.072Z,1.43
2019-03-10T07:12:41.349Z,1.50
2019-03-10T07:15:51.668Z,1.23
2019-03-10T07:26:27.240Z,1.70
2019-03-10T07:29:08.751Z,1.90
2019-03-10T07:31:54.606Z,2.13
2019-03-10T07:34:35.670Z,1.80
2019-03-10T07:40:18.009Z,1.33
2019-03-10T07:43:17.648Z,1.87
2019-03-10T07:46:18.154Z,1.20
2019-03-10T07:52:22.699Z,1.60
2019-03-10T07:58:15.610Z,1.17
2019-03-10T08:01:16.080Z,1.43
2019-03-10T08:04:19.440Z,1.37
2019-03-10T08:07:22.830Z,2.00
2019-03-10T08:10:13.452Z,1.60
2019-03-10T08:13:19.661Z,1.80
2019-03-10T08:16:12.501Z,1.77
2019-03-10T08:21:52.336Z,1.57
2019-03-10T08:24:58.020Z,1.13
2019-03-10T08:27:43.964Z,1.40
2019-03-10T08:33:32.976Z,1.63
2019-03-10T08:36:36.308Z,1.80
2019-03-10T08:39:18.391Z,1.20
2019-03-10T08:42:20.612Z,1.77
2019-03-10T08:45:04.263Z,1.40
2019-03-10T08:47:54.427Z,1.60
2019-03-10T08:50:47.277Z,1.10
2019-03-10T08:53:54.949Z,1.17
2019-03-10T08:59:28.446Z,1.00
2019-03-10T09:05:33.515Z,1.00
2019-03-10T09:08:15.245Z,1.73
2019-03-10T09:14:20.940Z,1.10
2019-03-10T09:20:17.959Z,1.80
2019-03-10T09:23:09.675Z,1.37
2019-03-10T09:26:01.815Z,1.80
2019-03-10T09:29:07.915Z,1.20
2019-03-10T09:31:49.115Z,1.60
2019-03-10T09:34:32.207Z,1.20
2019-03-10T09:37:29.597Z,1.63
2019-03-10T09:40:21.266Z,1.60
2019-03-10T09:46:25.925Z,0.90
2019-03-10T09:53:46.902Z,1.77
2019-03-10T10:05:12.123Z,2.10
2019-03-10T10:08:15.614Z,1.77
2019-03-10T10:10:59.997Z,1.83
2019-03-10T10:14:04.338Z,2.00
2019-03-10T10:17:04.233Z,1.90
2019-03-10T10:20:07.476Z,1.60
2019-03-10T10:23:10.692Z,1.80
2019-03-10T10:26:24.506Z,1.30
2019-03-10T10:29:03.910Z,1.63
2019-03-10T10:37:22.539Z,1.93
2019-03-10T10:40:28.336Z,0.90
2019-03-10T10:43:31.349Z,1.43
2019-03-10T10:46:20.650Z,1.63
2019-03-10T10:52:01.278Z,1.43
2019-03-10T10:54:55.025Z,1.37
2019-03-10T10:57:53.784Z,1.33
2019-03-10T11:00:54.192Z,2.10
2019-03-10T11:03:43.472Z,2.00
2019-03-10T11:06:51.123Z,1.87
2019-03-10T11:09:50.815Z,1.87
2019-03-10T11:12:31.786Z,1.60
2019-03-10T11:15:26.457Z,2.03
2019-03-10T11:18:27.222Z,1.20
2019-03-10T11:24:10.792Z,2.10
2019-03-10T11:27:29.101Z,2.00
2019-03-10T11:29:57.315Z,1.47
2019-03-10T11:35:46.059Z,2.03
2019-03-10T11:38:40.283Z,1.80
2019-03-10T11:41:33.817Z,1.20
2019-03-10T11:44:28.444Z,1.27
2019-03-10T11:47:09.363Z,1.23
2019-03-10T11:53:18.584Z,1.67
2019-03-10T11:59:10.572Z,1.00
2019-03-10T12:01:56.189Z,1.80
2019-03-10T12:04:38.782Z,2.10
2019-03-10T12:07:48.029Z,1.20
2019-03-10T12:13:40.139Z,1.87
2019-03-10T12:16:25.468Z,1.53
2019-03-10T12:19:24.853Z,1.70
2019-03-10T12:22:13.856Z,1.47
2019-03-10T12:24:56.549Z,1.20
2019-03-10T12:30:24.722Z,1.40
2019-03-10T12:35:46.193Z,2.20
2019-03-10T12:38:25.731Z,2.20
2019-03-10T12:41:07.078Z,1.77
2019-03-10T12:43:46.403Z,1.93
2019-03-10T12:46:28.842Z,1.40
2019-03-10T12:49:13.501Z,1.97
2019-03-10T12:54:35.954Z,2.20
2019-03-10T12:56:54.595Z,1.60
2019-03-10T12:59:43.392Z,1.63
2019-03-10T13:04:56.558Z,2.03
2019-03-10T13:07:44.543Z,1.57
2019-03-10T13:10:34.535Z,1.90
2019-03-10T13:13:23.319Z,1.97
2019-03-10T13:16:04.287Z,1.83
2019-03-10T13:18:45.555Z,2.00
2019-03-10T13:21:15.269Z,1.70
2019-03-10T13:24:04.003Z,1.90
2019-03-10T13:26:52.748Z,2.33
2019-03-10T13:29:41.504Z,1.67
2019-03-10T13:35:02.389Z,1.67
2019-03-10T13:37:40.855Z,1.77
2019-03-10T13:40:22.055Z,1.63
2019-03-10T13:43:03.315Z,1.73
2019-03-10T13:45:44.795Z,1.80
2019-03-10T13:51:20.567Z,1.67
2019-03-10T13:54:01.682Z,1.97
2019-03-10T13:56:43.261Z,2.30
2019-03-10T14:02:04.073Z,1.30
2019-03-10T14:04:45.823Z,1.53
2019-03-10T14:10:10.715Z,1.93
2019-03-10T14:12:59.708Z,1.80
2019-03-10T14:16:29.810Z,1.53
2019-03-10T14:19:02.207Z,2.10
2019-03-10T14:21:32.482Z,1.70
2019-03-10T14:24:03.337Z,1.50
2019-03-10T14:26:46.562Z,1.80
2019-03-10T14:29:25.535Z,1.47
2019-03-10T14:32:10.881Z,1.83
2019-03-10T14:34:50.361Z,1.60
2019-03-10T14:37:33.411Z,1.80
2019-03-10T14:40:14.845Z,2.20
2019-03-10T14:45:35.420Z,1.90
2019-03-10T14:48:17.023Z,1.93
2019-03-10T14:50:58.806Z,2.17
2019-03-10T14:53:37.445Z,2.40
2019-03-10T14:56:19.122Z,1.80
2019-03-10T14:59:00.823Z,2.13
2019-03-10T15:01:42.242Z,2.20
2019-03-10T15:04:23.854Z,3.20
2019-03-10T15:09:48.604Z,2.30
2019-03-10T15:12:30.210Z,2.00
2019-03-10T15:15:21.668Z,2.30
2019-03-10T15:20:34.427Z,2.40
2019-03-10T15:23:15.966Z,2.43
2019-03-10T15:25:57.217Z,2.40
2019-03-10T15:28:38.985Z,2.10
2019-03-10T15:31:20.447Z,2.10
2019-03-10T15:33:58.501Z,2.10
2019-03-10T15:36:49.384Z,2.13
2019-03-10T15:39:30.881Z,1.90
2019-03-10T15:44:51.522Z,1.63
2019-03-10T15:47:33.028Z,2.10
2019-03-10T15:50:14.043Z,2.57
2019-03-10T15:52:55.736Z,2.20
2019-03-10T15:55:37.336Z,2.50
2019-03-10T15:58:18.506Z,2.10
2019-03-10T16:03:39.292Z,2.00
2019-03-10T16:09:00.844Z,3.00
2019-03-10T16:11:41.920Z,2.50
2019-03-10T16:14:22.724Z,2.83
2019-03-10T16:16:52.486Z,3.63
2019-03-10T16:19:40.591Z,2.83
2019-03-10T16:22:10.394Z,2.40
2019-03-10T16:24:40.180Z,2.40
2019-03-10T16:27:29.020Z,2.33
2019-03-10T16:30:17.900Z,2.40
2019-03-10T16:32:55.923Z,2.13
2019-03-10T16:35:37.367Z,3.10
2019-03-10T16:38:16.476Z,2.40
2019-03-10T16:40:58.622Z,3.20
2019-03-10T16:43:40.242Z,3.53
2019-03-10T16:48:58.613Z,2.00
2019-03-10T16:57:15.714Z,2.50
2019-03-10T16:59:57.003Z,4.50
2019-03-10T17:02:35.219Z,5.63
2019-03-10T17:05:16.813Z,6.30
2019-03-10T17:10:40.593Z,4.47
2019-03-10T17:18:56.882Z,4.33
2019-03-10T17:21:38.583Z,3.40
2019-03-10T17:24:19.735Z,4.80
2019-03-10T17:27:01.512Z,5.00
2019-03-10T17:32:22.168Z,3.37
2019-03-10T17:37:41.466Z,2.87
2019-03-10T17:40:22.872Z,1.73
2019-03-10T17:43:01.678Z,2.23
2019-03-10T17:45:43.359Z,2.10
2019-03-10T17:51:15.796Z,3.00
2019-03-10T17:53:56.733Z,3.20
2019-03-10T17:56:37.958Z,3.17
2019-03-10T17:59:19.704Z,3.43
2019-03-10T18:02:08.317Z,3.03
2019-03-10T18:04:42.059Z,2.63
2019-03-10T18:07:20.291Z,2.93
2019-03-10T18:12:44.183Z,3.20
2019-03-10T18:15:25.463Z,3.17
2019-03-10T18:18:07.026Z,3.97
2019-03-10T18:23:28.465Z,3.50
2019-03-10T18:26:09.562Z,4.40
2019-03-10T18:28:51.199Z,4.50
2019-03-10T18:31:34.178Z,4.10
2019-03-10T18:34:15.292Z,4.40
2019-03-10T18:39:33.114Z,5.27
2019-03-10T18:42:15.060Z,4.27
2019-03-10T18:44:56.112Z,4.63
2019-03-10T18:50:17.700Z,4.37
2019-03-10T18:53:08.267Z,4.37
2019-03-10T18:55:50.486Z,3.80
2019-03-10T18:58:31.805Z,3.57
2019-03-10T19:03:54.169Z,2.97
2019-03-10T19:06:38.517Z,3.70
2019-03-10T19:09:19.850Z,3.10
2019-03-10T19:12:02.442Z,2.90
2019-03-10T19:14:43.646Z,3.70
2019-03-10T19:17:25.259Z,3.60
2019-03-10T19:22:45.876Z,3.90
2019-03-10T19:25:27.430Z,3.60
2019-03-10T19:30:49.213Z,4.50
2019-03-10T19:33:30.352Z,3.97
2019-03-10T19:38:48.246Z,4.73
2019-03-10T19:41:37.117Z,4.93
2019-03-10T19:44:06.913Z,6.33
2019-03-10T19:46:36.685Z,6.37
2019-03-10T19:49:25.627Z,5.93
2019-03-10T19:52:15.277Z,7.27
2019-03-10T19:55:04.515Z,6.63
2019-03-10T19:57:46.126Z,5.90
2019-03-10T20:00:24.884Z,6.00
2019-03-10T20:03:06.379Z,5.80
2019-03-10T20:05:48.222Z,3.93
2019-03-10T20:08:29.806Z,3.90
2019-03-10T20:11:11.448Z,2.70
2019-03-10T20:13:49.875Z,2.93
2019-03-10T20:16:31.538Z,3.00
2019-03-10T20:19:09.900Z,2.80
2019-03-10T20:21:53.234Z,2.87
2019-03-10T20:27:17.246Z,2.37
2019-03-10T20:29:58.463Z,2.60
2019-03-10T20:32:39.977Z,2.50
2019-03-10T20:38:02.435Z,2.73
2019-03-10T20:43:34.132Z,4.83
2019-03-10T20:46:15.722Z,4.73
2019-03-10T20:48:57.060Z,3.00
2019-03-10T20:51:38.402Z,5.03
2019-03-10T20:54:19.864Z,5.87
2019-03-10T20:59:43.510Z,4.37
2019-03-10T21:02:24.651Z,4.87
2019-03-10T21:05:06.197Z,4.13
2019-03-10T21:07:47.609Z,4.63
2019-03-10T21:10:29.165Z,4.70
2019-03-10T21:13:07.507Z,4.73
2019-03-10T21:15:48.652Z,4.90
2019-03-10T21:18:30.054Z,5.80
2019-03-10T21:21:11.468Z,5.37
2019-03-10T21:23:55.142Z,6.93
2019-03-10T21:26:35.857Z,7.33
2019-03-10T21:31:57.233Z,6.70
2019-03-10T21:34:38.543Z,7.53
2019-03-10T21:37:20.133Z,6.50
2019-03-10T21:42:44.105Z,6.70
2019-03-10T21:45:25.875Z,6.70
2019-03-10T21:48:07.057Z,6.87
2019-03-10T21:50:48.538Z,6.70
2019-03-10T21:53:29.993Z,6.90
2019-03-10T21:58:52.465Z,5.97
2019-03-10T22:01:33.448Z,4.43
2019-03-10T22:06:58.284Z,3.70
2019-03-10T22:12:22.799Z,4.13
2019-03-10T22:15:04.196Z,2.87
2019-03-10T22:17:45.583Z,3.37
2019-03-10T22:23:06.435Z,4.90
2019-03-10T22:25:47.844Z,5.77
2019-03-10T22:28:29.424Z,5.00
2019-03-10T22:33:50.041Z,6.60
2019-03-10T22:36:31.215Z,7.70
2019-03-10T22:39:12.792Z,8.73
2019-03-10T22:41:54.130Z,8.47
2019-03-10T22:44:35.372Z,9.40
2019-03-10T22:47:16.632Z,8.57
2019-03-10T22:52:37.139Z,5.37
2019-03-10T22:55:18.555Z,5.70
2019-03-10T22:57:59.652Z,6.30
2019-03-10T23:00:48.166Z,4.80
2019-03-10T23:03:36.890Z,4.43
2019-03-10T23:06:06.636Z,4.47
2019-03-10T23:08:36.363Z,5.17
2019-03-10T23:11:25.129Z,3.23
2019-03-10T23:14:13.844Z,3.73
2019-03-10T23:17:01.825Z,3.00
2019-03-10T23:19:43.322Z,4.87
2019-03-10T23:22:24.515Z,5.33
2019-03-10T23:25:06.082Z,5.50
2019-03-10T23:27:47.720Z,7.50
2019-03-10T23:30:25.929Z,6.80
2019-03-10T23:33:07.143Z,4.67
2019-03-10T23:35:45.229Z,3.17
2019-03-10T23:38:33.927Z,7.60
2019-03-10T23:41:15.060Z,7.50
2019-03-10T23:43:56.481Z,8.17
2019-03-10T23:46:37.680Z,5.07
2019-03-10T23:49:19.194Z,7.07
2019-03-10T23:51:57.564Z,6.17
2019-03-10T23:54:38.951Z,7.57
2019-03-10T23:59:59.568Z,6.67
